Time;durP1;ratioP1;P1;durP2;ratioP2;P2;SDS_P1;SDS_P2;PMS_P1;PMS_P2;Temp;Humidity;BMP_temperature;BMP_pressure;BME280_temperature;BME280_humidity;BME280_pressure;Samples;Min_cycle;Max_cycle;Signal;HPM_P1;HPM_P2
2021/10/02 00:34:20;;;;;;;24.17;21.55;;;;;;;;;;5060536;28;20064;-73
2021/10/02 00:44:44;;;;;;;24.85;21.85;;;;;;;;;;5060198;28;20024;-73
2021/10/02 00:47:11;;;;;;;23.92;21.30;;;;;;;;;;5074866;28;20083;-73
2021/10/02 00:49:38;;;;;;;28.67;23.23;;;;;;;;;;5075203;28;20025;-72
2021/10/02 00:52:04;;;;;;;22.88;20.42;;;;;;;;;;5073707;28;20478;-72
2021/10/02 00:54:30;;;;;;;22.63;20.17;;;;;;;;;;5073716;28;20351;-72
2021/10/02 00:56:56;;;;;;;23.80;21.10;;;;;;;;;;5074159;28;20300;-72
2021/10/02 00:59:22;;;;;;;26.15;22.23;;;;;;;;;;5073711;28;20115;-72
2021/10/02 01:01:51;;;;;;;24.90;21.70;;;;;;;;;;5073354;28;20382;-72
2021/10/02 01:04:19;;;;;;;23.02;20.48;;;;;;;;;;5074236;28;20036;-72
2021/10/02 01:06:48;;;;;;;23.17;20.02;;;;;;;;;;5074683;28;20059;-72
2021/10/02 01:09:21;;;;;;;22.92;20.23;;;;;;;;;;5074528;28;20017;-72
2021/10/02 01:11:53;;;;;;;24.45;21.80;;;;;;;;;;5074655;28;20124;-72
2021/10/02 01:14:24;;;;;;;24.33;21.08;;;;;;;;;;5074159;28;20074;-73
2021/10/02 01:16:52;;;;;;;28.08;21.20;;;;;;;;;;5074243;28;20056;-72
2021/10/02 01:19:38;;;;;;;24.77;22.33;;;;;;;;;;5073649;28;20055;-72
2021/10/02 01:22:20;;;;;;;22.70;20.40;;;;;;;;;;5059276;28;20028;-72
2021/10/02 01:24:49;;;;;;;24.42;21.40;;;;;;;;;;5073719;28;20033;-72
2021/10/02 01:27:35;;;;;;;23.02;20.45;;;;;;;;;;5073760;28;20031;-72
2021/10/02 01:30:04;;;;;;;21.08;18.92;;;;;;;;;;5059703;28;20130;-72
2021/10/02 01:32:34;;;;;;;22.00;19.77;;;;;;;;;;5072697;28;20021;-73
2021/10/02 01:35:08;;;;;;;25.17;21.50;;;;;;;;;;5073864;28;20378;-73
2021/10/02 01:47:08;;;;;;;20.33;18.20;;;;;;;;;;5073125;28;20056;-73
2021/10/02 01:48:40;;;;;;;20.70;18.42;;;;;;;;;;5058938;28;20389;-72
2021/10/02 01:51:08;;;;;;;22.20;19.95;;;;;;;;;;5073522;28;20037;-72
2021/10/02 01:53:34;;;;;;;21.75;19.35;;;;;;;;;;5073612;28;20021;-72
2021/10/02 01:56:02;;;;;;;21.55;18.75;;;;;;;;;;5072971;28;20025;-72
2021/10/02 01:58:28;;;;;;;23.83;21.33;;;;;;;;;;5073080;28;20359;-72
2021/10/02 02:00:55;;;;;;;23.85;19.90;;;;;;;;;;5073510;28;20029;-72
2021/10/02 02:03:21;;;;;;;21.67;19.45;;;;;;;;;;5073692;28;20028;-72
2021/10/02 02:05:47;;;;;;;22.35;19.98;;;;;;;;;;5066736;28;20128;-72
2021/10/02 02:08:14;;;;;;;23.60;18.60;;;;;;;;;;5053055;28;20029;-72
2021/10/02 02:10:40;;;;;;;21.48;19.05;;;;;;;;;;5050561;28;20091;-72
2021/10/02 02:13:06;;;;;;;21.08;18.08;;;;;;;;;;5052962;28;20501;-72
2021/10/02 02:15:33;;;;;;;19.88;17.92;;;;;;;;;;5053576;28;20390;-72
2021/10/02 02:18:00;;;;;;;22.08;19.55;;;;;;;;;;5054010;28;20430;-72
2021/10/02 02:20:33;;;;;;;21.63;19.25;;;;;;;;;;5052900;28;20096;-72
2021/10/02 02:23:00;;;;;;;21.65;19.50;;;;;;;;;;5053182;28;20037;-72
2021/10/02 02:25:26;;;;;;;21.75;19.50;;;;;;;;;;5053388;28;20382;-72
2021/10/02 02:27:52;;;;;;;20.35;17.38;;;;;;;;;;5053174;28;20033;-72
2021/10/02 02:30:18;;;;;;;21.65;19.30;;;;;;;;;;5052227;28;20028;-73
2021/10/02 02:32:45;;;;;;;22.10;19.33;;;;;;;;;;5053952;28;20021;-72
2021/10/02 02:35:11;;;;;;;20.67;18.73;;;;;;;;;;5052635;28;20021;-73
2021/10/02 02:37:37;;;;;;;19.15;17.25;;;;;;;;;;5048615;28;20021;-73
2021/10/02 02:40:04;;;;;;;19.63;17.27;;;;;;;;;;5049987;28;20100;-72
2021/10/02 02:42:30;;;;;;;21.90;19.60;;;;;;;;;;5048256;28;20025;-73
2021/10/02 02:44:56;;;;;;;19.92;17.48;;;;;;;;;;5052895;28;20068;-72
2021/10/02 02:47:23;;;;;;;20.15;17.27;;;;;;;;;;5052878;28;20021;-72
2021/10/02 02:49:51;;;;;;;22.52;19.55;;;;;;;;;;5053491;28;20113;-72
2021/10/02 02:52:19;;;;;;;21.98;17.88;;;;;;;;;;5052726;28;20387;-73
2021/10/02 02:54:50;;;;;;;19.63;17.58;;;;;;;;;;5052305;28;20028;-72
2021/10/02 02:57:18;;;;;;;19.95;17.88;;;;;;;;;;5074064;28;20032;-72
2021/10/02 02:59:46;;;;;;;22.95;19.17;;;;;;;;;;5073870;28;20071;-72
2021/10/02 03:02:14;;;;;;;21.83;17.13;;;;;;;;;;5075306;28;20024;-72
2021/10/02 03:04:40;;;;;;;18.25;16.35;;;;;;;;;;5076311;28;20091;-72
2021/10/02 03:07:06;;;;;;;18.92;17.08;;;;;;;;;;5076782;28;20398;-72
2021/10/02 03:09:33;;;;;;;18.27;16.55;;;;;;;;;;5076404;28;20090;-72
2021/10/02 03:11:59;;;;;;;18.75;16.95;;;;;;;;;;5075780;28;20040;-72
2021/10/02 03:14:25;;;;;;;19.58;17.38;;;;;;;;;;5076105;28;20029;-72
2021/10/02 03:16:52;;;;;;;19.67;17.63;;;;;;;;;;5076466;28;20024;-74
2021/10/02 03:19:19;;;;;;;19.80;17.73;;;;;;;;;;5076474;28;20055;-73
2021/10/02 03:21:45;;;;;;;19.23;17.15;;;;;;;;;;5075899;28;20024;-74
2021/10/02 03:24:11;;;;;;;19.08;17.20;;;;;;;;;;5075780;28;20086;-73
2021/10/02 03:26:38;;;;;;;20.20;18.10;;;;;;;;;;5076330;28;20111;-73
2021/10/02 03:29:04;;;;;;;25.73;19.13;;;;;;;;;;5076075;28;20112;-73
2021/10/02 03:31:30;;;;;;;24.80;18.55;;;;;;;;;;5075375;28;20040;-73
2021/10/02 03:33:56;;;;;;;22.02;19.23;;;;;;;;;;5076193;28;20020;-73
2021/10/02 03:36:22;;;;;;;24.58;18.00;;;;;;;;;;5074866;28;20224;-73
2021/10/02 03:38:48;;;;;;;19.75;17.35;;;;;;;;;;5075565;28;20059;-73
2021/10/02 03:41:14;;;;;;;19.75;17.35;;;;;;;;;;5076462;28;20025;-73
2021/10/02 03:43:40;;;;;;;17.23;15.50;;;;;;;;;;5076347;28;20051;-73
2021/10/02 03:46:06;;;;;;;23.40;18.10;;;;;;;;;;5076367;28;20059;-73
2021/10/02 03:48:32;;;;;;;22.05;17.08;;;;;;;;;;5076081;28;20044;-73
2021/10/02 03:50:58;;;;;;;19.65;17.63;;;;;;;;;;5075548;28;20382;-73
2021/10/02 03:53:25;;;;;;;23.63;19.60;;;;;;;;;;5074259;28;20370;-73
2021/10/02 03:55:51;;;;;;;21.10;17.83;;;;;;;;;;5075918;28;20076;-73
2021/10/02 03:58:17;;;;;;;21.15;17.80;;;;;;;;;;5072769;28;20058;-73
2021/10/02 04:00:43;;;;;;;17.48;15.68;;;;;;;;;;5074563;28;20033;-73
2021/10/02 04:03:09;;;;;;;18.90;16.90;;;;;;;;;;5074926;28;20036;-72
2021/10/02 04:05:35;;;;;;;20.85;18.05;;;;;;;;;;5075374;28;20036;-72
2021/10/02 04:08:01;;;;;;;19.98;17.30;;;;;;;;;;5075246;28;20046;-73
2021/10/02 04:10:27;;;;;;;18.27;16.35;;;;;;;;;;5074921;28;20498;-73
2021/10/02 04:12:53;;;;;;;18.05;15.88;;;;;;;;;;5074354;28;20508;-73
2021/10/02 04:15:19;;;;;;;18.27;16.38;;;;;;;;;;5075959;28;20420;-72
2021/10/02 04:17:45;;;;;;;19.00;16.35;;;;;;;;;;5075421;28;20036;-73
2021/10/02 04:20:12;;;;;;;18.38;16.40;;;;;;;;;;5075816;28;20029;-72
2021/10/02 04:22:38;;;;;;;18.13;16.33;;;;;;;;;;5074556;28;20099;-73
2021/10/02 04:25:04;;;;;;;17.30;15.48;;;;;;;;;;5076154;28;20021;-73
2021/10/02 04:27:30;;;;;;;19.23;15.68;;;;;;;;;;5075096;28;20494;-73
2021/10/02 04:29:56;;;;;;;17.50;15.70;;;;;;;;;;5066844;28;20024;-72
2021/10/02 04:32:23;;;;;;;19.63;16.33;;;;;;;;;;5074206;28;20032;-73
2021/10/02 04:34:49;;;;;;;17.85;16.05;;;;;;;;;;5074138;28;20035;-73
2021/10/02 04:37:15;;;;;;;17.70;15.82;;;;;;;;;;5074215;28;20060;-72
2021/10/02 04:39:41;;;;;;;19.52;15.75;;;;;;;;;;5072778;28;20021;-72
2021/10/02 04:42:07;;;;;;;17.00;15.23;;;;;;;;;;5074895;28;20024;-73
2021/10/02 04:44:33;;;;;;;17.52;15.52;;;;;;;;;;5074976;28;20020;-73
2021/10/02 04:47:00;;;;;;;18.30;15.93;;;;;;;;;;5074114;28;20354;-73
2021/10/02 04:49:26;;;;;;;17.70;14.85;;;;;;;;;;5074376;28;20021;-72
2021/10/02 04:51:52;;;;;;;18.10;16.20;;;;;;;;;;5074521;28;20060;-72
2021/10/02 04:54:18;;;;;;;17.48;15.48;;;;;;;;;;5074666;28;20063;-73
2021/10/02 04:56:45;;;;;;;16.05;14.35;;;;;;;;;;5056707;28;20076;-73
2021/10/02 04:59:11;;;;;;;15.88;14.15;;;;;;;;;;5054919;28;20097;-73
2021/10/02 05:01:38;;;;;;;17.50;15.77;;;;;;;;;;5054835;28;20021;-73
2021/10/02 05:04:04;;;;;;;15.40;13.30;;;;;;;;;;5054641;28;20108;-73
2021/10/02 05:06:30;;;;;;;19.38;14.73;;;;;;;;;;5053936;28;20029;-73
2021/10/02 05:08:56;;;;;;;14.93;13.43;;;;;;;;;;5055371;28;20033;-73
2021/10/02 05:11:22;;;;;;;16.38;14.52;;;;;;;;;;5054909;28;20037;-73
2021/10/02 05:13:48;;;;;;;17.85;14.52;;;;;;;;;;5054906;28;20021;-73
2021/10/02 05:16:14;;;;;;;15.60;13.90;;;;;;;;;;5054240;28;20425;-72
2021/10/02 05:18:41;;;;;;;17.08;15.20;;;;;;;;;;5054204;28;20100;-72
2021/10/02 05:21:07;;;;;;;19.80;14.35;;;;;;;;;;5050122;28;20052;-75
2021/10/02 05:23:33;;;;;;;15.20;13.50;;;;;;;;;;5052910;28;20028;-73
2021/10/02 05:25:59;;;;;;;16.15;14.52;;;;;;;;;;5030910;28;20069;-73
2021/10/02 05:28:25;;;;;;;18.92;16.75;;;;;;;;;;5063299;28;20079;-74
2021/10/02 05:30:51;;;;;;;13.90;12.50;;;;;;;;;;5059329;28;20175;-72
2021/10/02 05:33:18;;;;;;;26.73;14.48;;;;;;;;;;5052100;28;20398;-72
2021/10/02 05:35:45;;;;;;;15.82;14.35;;;;;;;;;;5053988;28;20060;-73
2021/10/02 05:38:12;;;;;;;15.60;13.90;;;;;;;;;;5068321;28;20036;-72
2021/10/02 05:40:38;;;;;;;19.15;13.40;;;;;;;;;;5073919;28;20041;-72
2021/10/02 05:43:04;;;;;;;16.08;13.38;;;;;;;;;;5057983;28;20074;-70
2021/10/02 05:45:30;;;;;;;15.25;13.65;;;;;;;;;;5050233;28;20036;-73
2021/10/02 05:47:56;;;;;;;14.60;13.13;;;;;;;;;;5053113;28;20036;-72
2021/10/02 05:50:22;;;;;;;23.33;14.27;;;;;;;;;;5053176;28;20033;-73
2021/10/02 05:52:48;;;;;;;13.98;11.30;;;;;;;;;;5066772;28;20074;-73
2021/10/02 05:55:15;;;;;;;30.48;14.13;;;;;;;;;;5074009;28;20048;-73
2021/10/02 05:57:41;;;;;;;15.50;13.95;;;;;;;;;;5071176;28;20044;-74
2021/10/02 06:00:07;;;;;;;16.95;13.80;;;;;;;;;;5073929;28;20482;-72
2021/10/02 06:02:33;;;;;;;14.82;13.27;;;;;;;;;;5072857;28;20560;-73
2021/10/02 06:04:59;;;;;;;14.10;11.63;;;;;;;;;;5073331;28;20032;-72
2021/10/02 06:07:25;;;;;;;16.20;14.52;;;;;;;;;;5070279;28;20025;-72
2021/10/02 06:09:52;;;;;;;17.02;15.40;;;;;;;;;;5073881;28;20029;-73
2021/10/02 06:12:18;;;;;;;12.18;10.75;;;;;;;;;;5073633;28;20037;-72
2021/10/02 06:14:44;;;;;;;13.45;11.50;;;;;;;;;;5073691;28;20021;-74
2021/10/02 06:17:10;;;;;;;16.55;13.27;;;;;;;;;;5070989;28;20385;-72
2021/10/02 06:19:36;;;;;;;12.25;10.95;;;;;;;;;;5073465;28;20366;-74
2021/10/02 06:22:03;;;;;;;18.08;15.30;;;;;;;;;;5073686;28;20193;-72
2021/10/02 06:24:30;;;;;;;19.42;16.67;;;;;;;;;;5057016;28;20036;-73
2021/10/02 06:26:56;;;;;;;14.48;10.88;;;;;;;;;;5055826;28;20035;-73
2021/10/02 06:29:22;;;;;;;13.77;11.07;;;;;;;;;;5073789;28;20114;-74
2021/10/02 06:31:49;;;;;;;12.57;10.90;;;;;;;;;;5073178;28;20375;-78
2021/10/02 06:34:15;;;;;;;23.70;13.70;;;;;;;;;;5073486;28;20119;-72
2021/10/02 06:36:42;;;;;;;14.10;11.65;;;;;;;;;;5072325;28;20032;-72
2021/10/02 06:39:08;;;;;;;15.95;11.18;;;;;;;;;;5077029;28;20462;-71
2021/10/02 06:41:34;;;;;;;11.77;10.60;;;;;;;;;;5062495;28;20031;-71
2021/10/02 06:44:00;;;;;;;16.83;13.43;;;;;;;;;;5077660;28;20102;-71
2021/10/02 06:46:26;;;;;;;13.85;11.45;;;;;;;;;;5075419;28;20035;-72
2021/10/02 06:48:52;;;;;;;14.20;9.98;;;;;;;;;;5075759;28;20055;-77
2021/10/02 06:51:18;;;;;;;18.20;11.50;;;;;;;;;;5067389;28;20409;-77
2021/10/02 06:53:44;;;;;;;25.15;11.57;;;;;;;;;;5076207;28;20085;-76
2021/10/02 06:56:10;;;;;;;10.80;9.55;;;;;;;;;;5077079;28;20056;-76
2021/10/02 06:58:37;;;;;;;14.55;9.70;;;;;;;;;;5059714;28;20032;-76
2021/10/02 07:01:03;;;;;;;13.40;10.68;;;;;;;;;;5057212;28;20028;-76
2021/10/02 07:03:29;;;;;;;11.82;10.15;;;;;;;;;;5056904;28;20032;-76
2021/10/02 07:05:56;;;;;;;12.32;9.38;;;;;;;;;;5057486;28;20056;-76
2021/10/02 07:08:22;;;;;;;16.75;11.82;;;;;;;;;;5057397;28;20025;-76
2021/10/02 07:10:48;;;;;;;11.52;9.50;;;;;;;;;;5057143;28;20418;-77
2021/10/02 07:13:14;;;;;;;17.35;10.02;;;;;;;;;;5057027;28;20101;-75
2021/10/02 07:15:40;;;;;;;17.85;10.65;;;;;;;;;;5056941;28;20368;-75
2021/10/02 07:18:07;;;;;;;9.40;8.32;;;;;;;;;;5056975;28;20032;-76
2021/10/02 07:20:33;;;;;;;11.85;9.57;;;;;;;;;;5057002;28;20506;-76
2021/10/02 07:22:59;;;;;;;13.95;8.23;;;;;;;;;;5057215;28;20111;-75
2021/10/02 07:25:25;;;;;;;14.35;8.32;;;;;;;;;;5057170;28;20025;-74
2021/10/02 07:27:51;;;;;;;12.88;10.38;;;;;;;;;;5057054;28;20024;-71
2021/10/02 07:30:17;;;;;;;14.82;7.95;;;;;;;;;;5057464;28;20033;-73
2021/10/02 07:32:43;;;;;;;9.05;8.25;;;;;;;;;;5060095;28;20029;-76
2021/10/02 07:35:15;;;;;;;11.07;7.90;;;;;;;;;;5060343;28;20033;-72
2021/10/02 07:37:41;;;;;;;8.90;7.70;;;;;;;;;;5058863;28;20032;-74
2021/10/02 07:40:08;;;;;;;8.75;7.85;;;;;;;;;;5059542;28;20105;-70
2021/10/02 07:42:35;;;;;;;12.20;8.93;;;;;;;;;;5059557;28;20120;-70
2021/10/02 07:45:06;;;;;;;10.80;7.75;;;;;;;;;;5059507;28;20103;-71
2021/10/02 07:47:32;;;;;;;17.17;10.88;;;;;;;;;;5059253;28;20029;-72
2021/10/02 07:49:58;;;;;;;8.55;7.72;;;;;;;;;;5059273;28;20021;-73
2021/10/02 07:52:24;;;;;;;7.95;7.25;;;;;;;;;;5059022;28;20060;-72
2021/10/02 07:54:51;;;;;;;9.18;7.38;;;;;;;;;;5061133;28;20066;-73
2021/10/02 07:57:18;;;;;;;12.90;6.38;;;;;;;;;;5079330;28;20043;-73
2021/10/02 07:59:44;;;;;;;10.55;9.20;;;;;;;;;;5078655;28;20024;-72
2021/10/02 08:02:10;;;;;;;13.35;7.57;;;;;;;;;;5078334;28;20115;-72
2021/10/02 08:04:37;;;;;;;13.18;7.85;;;;;;;;;;5069152;28;20035;-73
2021/10/02 08:07:04;;;;;;;8.88;7.53;;;;;;;;;;5058622;28;20025;-73
2021/10/02 08:09:30;;;;;;;9.18;7.88;;;;;;;;;;5057954;28;20031;-71
2021/10/02 08:11:56;;;;;;;15.70;8.10;;;;;;;;;;5058190;28;20044;-73
2021/10/02 08:14:22;;;;;;;6.80;6.20;;;;;;;;;;5076828;28;20039;-72
2021/10/02 08:16:48;;;;;;;19.60;9.02;;;;;;;;;;5070886;28;20036;-70
2021/10/02 08:19:15;;;;;;;11.20;7.10;;;;;;;;;;5060263;28;20024;-71
2021/10/02 08:21:42;;;;;;;12.57;8.75;;;;;;;;;;5057399;28;20109;-71
2021/10/02 08:24:08;;;;;;;10.05;7.65;;;;;;;;;;5058751;28;20021;-71
2021/10/02 08:26:34;;;;;;;8.25;7.50;;;;;;;;;;5058472;28;20492;-72
2021/10/02 08:29:02;;;;;;;8.40;7.57;;;;;;;;;;5056625;28;20025;-72
2021/10/02 08:31:28;;;;;;;9.65;8.68;;;;;;;;;;5058073;28;20106;-75
2021/10/02 08:33:54;;;;;;;10.27;8.18;;;;;;;;;;5058155;28;20025;-71
2021/10/02 08:36:20;;;;;;;9.15;7.75;;;;;;;;;;5058115;28;20474;-72
2021/10/02 08:38:46;;;;;;;8.82;6.80;;;;;;;;;;5056650;28;20021;-71
2021/10/02 08:41:12;;;;;;;10.73;9.60;;;;;;;;;;5070327;28;20033;-70
2021/10/02 08:43:39;;;;;;;8.45;7.57;;;;;;;;;;5077936;28;20031;-70
2021/10/02 08:46:06;;;;;;;8.43;7.00;;;;;;;;;;5077582;28;20096;-70
2021/10/02 08:48:32;;;;;;;13.32;7.53;;;;;;;;;;5066546;28;20025;-72
2021/10/02 08:50:58;;;;;;;51.10;9.25;;;;;;;;;;5066858;28;20047;-69
2021/10/02 08:53:27;;;;;;;13.05;8.82;;;;;;;;;;5077962;28;20028;-69
2021/10/02 08:55:54;;;;;;;9.40;7.13;;;;;;;;;;5077895;28;20047;-74
2021/10/02 08:58:20;;;;;;;12.30;7.95;;;;;;;;;;5067013;28;20021;-72
2021/10/02 09:00:46;;;;;;;10.02;6.90;;;;;;;;;;5068093;28;20514;-71
2021/10/02 09:03:12;;;;;;;10.55;7.57;;;;;;;;;;5058002;28;20029;-71
2021/10/02 09:05:38;;;;;;;22.55;7.30;;;;;;;;;;5057914;28;20025;-71
2021/10/02 09:08:04;;;;;;;12.35;8.18;;;;;;;;;;5060001;28;20519;-70
2021/10/02 09:10:31;;;;;;;13.10;8.55;;;;;;;;;;5063247;28;20029;-70
2021/10/02 09:12:57;;;;;;;9.68;7.63;;;;;;;;;;5078119;28;20111;-72
2021/10/02 09:15:23;;;;;;;7.57;6.88;;;;;;;;;;5059007;28;20041;-75
2021/10/02 09:17:49;;;;;;;9.85;6.80;;;;;;;;;;5053801;28;20025;-72
2021/10/02 09:20:16;;;;;;;10.50;9.32;;;;;;;;;;5028633;28;20040;-73
2021/10/02 09:23:00;;;;;;;12.45;8.02;;;;;;;;;;5019487;28;20032;-73
2021/10/02 09:25:27;;;;;;;18.88;9.15;;;;;;;;;;5033182;28;20391;-76
2021/10/02 09:28:13;;;;;;;14.30;9.45;;;;;;;;;;5034281;28;20049;-76
2021/10/02 09:30:39;;;;;;;12.07;9.10;;;;;;;;;;5019230;28;20030;-74
2021/10/02 09:33:07;;;;;;;16.50;10.35;;;;;;;;;;5034725;28;20514;-76
2021/10/02 09:35:35;;;;;;;10.65;9.70;;;;;;;;;;5033646;28;20029;-75
2021/10/02 09:38:01;;;;;;;12.10;9.23;;;;;;;;;;5033907;28;20029;-78
2021/10/02 09:40:28;;;;;;;13.07;8.77;;;;;;;;;;5033669;28;20036;-77
2021/10/02 09:42:55;;;;;;;12.60;9.05;;;;;;;;;;5033595;28;20036;-77
2021/10/02 09:45:23;;;;;;;9.38;7.63;;;;;;;;;;5034850;28;20041;-76
2021/10/02 09:47:49;;;;;;;11.38;9.90;;;;;;;;;;5033999;28;20073;-78
2021/10/02 09:50:16;;;;;;;10.80;8.70;;;;;;;;;;5033113;28;20018;-79
2021/10/02 09:52:43;;;;;;;9.55;8.55;;;;;;;;;;5033976;28;20091;-75
2021/10/02 09:55:26;;;;;;;12.50;10.02;;;;;;;;;;5038159;28;20263;-76
2021/10/02 09:57:53;;;;;;;17.92;9.55;;;;;;;;;;5053773;28;20033;-77
2021/10/02 10:00:20;;;;;;;10.93;9.57;;;;;;;;;;5053755;28;20033;-76
2021/10/02 10:02:46;;;;;;;23.33;10.38;;;;;;;;;;5053973;28;20036;-74
2021/10/02 10:05:13;;;;;;;10.48;9.35;;;;;;;;;;5053086;28;20048;-77
2021/10/02 10:07:39;;;;;;;11.07;9.98;;;;;;;;;;5053632;28;20100;-75
2021/10/02 10:10:11;;;;;;;12.80;10.18;;;;;;;;;;5054789;28;20025;-75
2021/10/02 10:12:38;;;;;;;14.18;9.95;;;;;;;;;;5057310;28;20048;-74
2021/10/02 10:15:04;;;;;;;12.88;11.20;;;;;;;;;;5057202;28;20074;-74
2021/10/02 10:17:32;;;;;;;10.63;9.23;;;;;;;;;;5057696;28;20066;-75
2021/10/02 10:20:00;;;;;;;14.88;8.40;;;;;;;;;;5057260;28;20028;-74
2021/10/02 10:22:26;;;;;;;8.82;7.93;;;;;;;;;;5057350;28;20112;-78
2021/10/02 10:24:53;;;;;;;31.27;9.85;;;;;;;;;;5058113;28;20029;-74
2021/10/02 10:27:36;;;;;;;13.77;8.73;;;;;;;;;;5057498;28;20021;-74
2021/10/02 10:30:22;;;;;;;11.25;7.88;;;;;;;;;;5057704;28;20467;-77
2021/10/02 10:33:04;;;;;;;9.82;8.82;;;;;;;;;;5042598;28;20352;-75
2021/10/02 10:35:31;;;;;;;10.82;8.73;;;;;;;;;;5057263;28;20055;-75
2021/10/02 10:37:57;;;;;;;10.52;9.52;;;;;;;;;;5057321;28;20072;-73
2021/10/02 10:40:24;;;;;;;23.50;8.00;;;;;;;;;;5057083;28;20025;-74
2021/10/02 10:42:51;;;;;;;20.38;8.75;;;;;;;;;;5057117;28;20040;-74
2021/10/02 10:45:17;;;;;;;12.48;8.68;;;;;;;;;;5056634;28;20024;-73
2021/10/02 10:47:44;;;;;;;14.10;8.23;;;;;;;;;;5057315;28;20612;-74
2021/10/02 10:50:10;;;;;;;15.32;9.07;;;;;;;;;;5056848;28;20036;-75
2021/10/02 10:52:37;;;;;;;9.30;7.72;;;;;;;;;;5057136;28;20493;-73
2021/10/02 10:55:04;;;;;;;16.33;9.07;;;;;;;;;;5056811;28;20127;-76
2021/10/02 10:57:38;;;;;;;20.02;6.57;;;;;;;;;;5060787;28;20027;-73
2021/10/02 11:00:05;;;;;;;23.48;8.13;;;;;;;;;;5075596;28;20025;-73
2021/10/02 11:02:41;;;;;;;8.75;7.28;;;;;;;;;;5076843;28;20078;-73
2021/10/02 11:05:26;;;;;;;11.05;7.78;;;;;;;;;;5077038;28;20029;-71
2021/10/02 11:07:52;;;;;;;8.73;7.82;;;;;;;;;;5076574;28;20025;-72
2021/10/02 11:10:38;;;;;;;9.55;7.25;;;;;;;;;;5074289;28;20452;-74
2021/10/02 11:13:04;;;;;;;13.68;7.20;;;;;;;;;;5075447;28;20024;-73
2021/10/02 11:15:31;;;;;;;8.95;5.72;;;;;;;;;;5092358;28;20035;-75
2021/10/02 11:17:57;;;;;;;10.80;6.43;;;;;;;;;;5076202;28;20028;-76
2021/10/02 11:20:29;;;;;;;16.00;6.25;;;;;;;;;;5091221;28;20043;-76
2021/10/02 11:23:15;;;;;;;11.10;5.97;;;;;;;;;;5094480;28;20541;-76
2021/10/02 11:25:42;;;;;;;9.13;6.57;;;;;;;;;;5082320;28;20023;-74
2021/10/02 11:28:28;;;;;;;9.63;5.55;;;;;;;;;;5096512;28;20020;-87
2021/10/02 11:30:55;;;;;;;6.05;4.57;;;;;;;;;;5096492;28;20393;-81
2021/10/02 11:33:41;;;;;;;12.68;6.35;;;;;;;;;;5096339;28;20053;-83
2021/10/02 11:36:27;;;;;;;7.47;5.05;;;;;;;;;;5062108;28;20460;-84
2021/10/02 11:38:56;;;;;;;8.70;6.38;;;;;;;;;;5051714;28;20103;-85
2021/10/02 11:41:23;;;;;;;7.40;6.47;;;;;;;;;;5055972;28;20033;-80
2021/10/02 11:43:54;;;;;;;8.98;5.43;;;;;;;;;;5055772;28;20029;-77
2021/10/02 11:46:24;;;;;;;9.52;6.13;;;;;;;;;;5068219;28;20031;-80
2021/10/02 11:48:50;;;;;;;35.08;6.78;;;;;;;;;;5096374;28;20039;-81
2021/10/02 11:51:18;;;;;;;7.05;5.72;;;;;;;;;;5095619;28;20068;-77
2021/10/02 11:53:45;;;;;;;6.93;5.22;;;;;;;;;;5096321;28;20073;-78
2021/10/02 11:56:12;;;;;;;15.02;5.30;;;;;;;;;;5093378;28;20401;-79
2021/10/02 11:58:42;;;;;;;9.65;6.15;;;;;;;;;;5096113;28;20128;-74
2021/10/02 12:01:13;;;;;;;8.93;5.05;;;;;;;;;;5096239;28;20020;-76
2021/10/02 12:03:39;;;;;;;5.07;4.45;;;;;;;;;;5096609;28;20025;-75
2021/10/02 12:06:06;;;;;;;7.63;4.95;;;;;;;;;;5085121;28;20037;-75
2021/10/02 12:08:32;;;;;;;8.95;5.93;;;;;;;;;;5072407;28;20016;-75
2021/10/02 12:11:10;;;;;;;12.23;6.22;;;;;;;;;;5075518;28;20085;-75
2021/10/02 12:13:39;;;;;;;10.82;5.63;;;;;;;;;;5075733;28;20081;-75
2021/10/02 12:16:08;;;;;;;10.50;6.15;;;;;;;;;;5070523;28;20454;-76
2021/10/02 12:18:42;;;;;;;6.82;5.05;;;;;;;;;;5090053;28;20242;-76
2021/10/02 12:21:11;;;;;;;5.80;5.22;;;;;;;;;;5077555;28;20155;-77
2021/10/02 12:23:49;;;;;;;12.30;5.38;;;;;;;;;;5075206;28;20040;-77
2021/10/02 12:26:15;;;;;;;8.82;4.93;;;;;;;;;;5076982;28;20032;-77
2021/10/02 12:28:41;;;;;;;8.23;4.70;;;;;;;;;;5075067;28;20031;-77
2021/10/02 12:31:07;;;;;;;6.20;4.85;;;;;;;;;;5075592;28;20045;-77
2021/10/02 12:33:33;;;;;;;12.68;5.18;;;;;;;;;;5074863;28;20032;-74
2021/10/02 12:35:59;;;;;;;5.82;5.28;;;;;;;;;;5073655;28;20036;-78
2021/10/02 12:38:25;;;;;;;5.63;4.47;;;;;;;;;;5074666;28;20061;-80
2021/10/02 12:40:52;;;;;;;5.28;4.40;;;;;;;;;;5075344;28;20423;-76
2021/10/02 12:43:18;;;;;;;7.05;5.10;;;;;;;;;;5074970;28;20025;-73
2021/10/02 12:45:44;;;;;;;5.10;4.60;;;;;;;;;;5074347;28;20462;-74
2021/10/02 12:51:14;;;;;;;7.00;5.30;;;;;;;;;;5074337;28;20050;-73
2021/10/02 12:53:40;;;;;;;8.63;6.20;;;;;;;;;;5075584;28;20466;-75
2021/10/02 12:56:14;;;;;;;5.72;4.55;;;;;;;;;;5075986;28;20430;-77
2021/10/02 12:58:40;;;;;;;13.68;5.40;;;;;;;;;;5076205;28;20458;-75
2021/10/02 13:01:06;;;;;;;12.23;4.97;;;;;;;;;;5074700;28;20029;-74
2021/10/02 13:03:37;;;;;;;7.63;5.05;;;;;;;;;;5076790;28;20020;-72
2021/10/02 13:06:04;;;;;;;16.77;5.43;;;;;;;;;;5074624;28;20028;-71
2021/10/02 13:08:30;;;;;;;11.73;5.15;;;;;;;;;;5077217;28;20025;-73
2021/10/02 13:10:56;;;;;;;7.47;6.25;;;;;;;;;;5077002;28;20535;-73
2021/10/02 13:13:22;;;;;;;7.68;5.35;;;;;;;;;;5072320;28;20367;-72
2021/10/02 13:15:49;;;;;;;24.85;6.15;;;;;;;;;;5072697;28;20073;-71
2021/10/02 13:18:16;;;;;;;7.32;5.40;;;;;;;;;;5073688;28;20025;-72
2021/10/02 13:20:51;;;;;;;13.27;5.88;;;;;;;;;;5073863;28;20525;-72
2021/10/02 13:23:19;;;;;;;9.60;7.38;;;;;;;;;;5074607;28;20033;-72
2021/10/02 13:25:46;;;;;;;8.35;5.13;;;;;;;;;;5074099;28;20066;-72
2021/10/02 13:28:31;;;;;;;9.98;6.95;;;;;;;;;;5073757;28;20028;-71
2021/10/02 13:30:58;;;;;;;6.00;5.40;;;;;;;;;;5074108;28;20043;-72
2021/10/02 13:33:24;;;;;;;10.75;6.50;;;;;;;;;;5074041;28;20433;-72
2021/10/02 13:35:52;;;;;;;9.82;5.75;;;;;;;;;;5074331;28;20031;-71
2021/10/02 13:38:28;;;;;;;8.25;5.63;;;;;;;;;;5073881;28;20035;-72
2021/10/02 13:40:54;;;;;;;6.43;5.82;;;;;;;;;;5074632;28;20032;-72
2021/10/02 13:43:21;;;;;;;11.75;6.05;;;;;;;;;;5074074;28;20432;-71
2021/10/02 13:45:48;;;;;;;6.90;5.53;;;;;;;;;;5073645;28;20025;-71
2021/10/02 13:48:15;;;;;;;6.63;5.88;;;;;;;;;;5074196;28;20036;-71
2021/10/02 13:50:42;;;;;;;10.73;6.65;;;;;;;;;;5073464;28;20041;-71
2021/10/02 13:53:09;;;;;;;9.43;6.30;;;;;;;;;;5073792;28;20035;-71
2021/10/02 13:55:35;;;;;;;20.65;6.75;;;;;;;;;;5073754;28;20044;-71
2021/10/02 13:58:02;;;;;;;14.10;5.72;;;;;;;;;;5073421;28;20082;-71
2021/10/02 14:00:28;;;;;;;6.30;5.30;;;;;;;;;;5073770;28;20030;-71
2021/10/02 14:02:54;;;;;;;10.40;6.55;;;;;;;;;;5073909;28;20067;-72
2021/10/02 14:05:21;;;;;;;12.35;5.72;;;;;;;;;;5073393;28;20027;-71
2021/10/02 14:07:47;;;;;;;9.98;6.05;;;;;;;;;;5073650;28;20032;-71
2021/10/02 14:10:13;;;;;;;7.07;6.35;;;;;;;;;;5073838;28;20067;-71
2021/10/02 14:12:39;;;;;;;8.05;7.28;;;;;;;;;;5073522;28;20120;-71
2021/10/02 14:15:05;;;;;;;9.95;8.05;;;;;;;;;;5073904;28;20024;-71
2021/10/02 14:17:31;;;;;;;10.23;6.72;;;;;;;;;;5073760;28;20111;-71
2021/10/02 14:19:58;;;;;;;6.65;5.93;;;;;;;;;;5073758;28;20038;-71
2021/10/02 14:22:24;;;;;;;11.48;6.63;;;;;;;;;;5073156;28;20086;-71
2021/10/02 14:24:50;;;;;;;13.85;6.55;;;;;;;;;;5073072;28;20032;-72
2021/10/02 14:27:16;;;;;;;6.80;6.20;;;;;;;;;;5073649;28;20047;-71
2021/10/02 14:29:42;;;;;;;7.45;6.05;;;;;;;;;;5073563;28;20025;-71
2021/10/02 14:32:08;;;;;;;15.70;6.53;;;;;;;;;;5073224;28;20041;-72
2021/10/02 14:34:34;;;;;;;7.15;5.57;;;;;;;;;;5073001;28;20025;-71
2021/10/02 14:37:00;;;;;;;9.23;6.82;;;;;;;;;;5073359;28;20029;-72
2021/10/02 14:39:27;;;;;;;7.95;6.93;;;;;;;;;;5073624;28;20139;-71
2021/10/02 14:41:54;;;;;;;7.90;6.78;;;;;;;;;;5073040;28;20020;-71
2021/10/02 14:44:20;;;;;;;10.15;6.78;;;;;;;;;;5073437;28;20024;-69
2021/10/02 14:46:46;;;;;;;8.68;6.38;;;;;;;;;;5073261;28;20035;-70
2021/10/02 14:49:12;;;;;;;7.35;6.63;;;;;;;;;;5073519;28;20459;-69
2021/10/02 14:51:38;;;;;;;9.35;7.50;;;;;;;;;;5072926;28;20497;-70
2021/10/02 14:54:04;;;;;;;7.65;6.95;;;;;;;;;;5072983;28;20063;-70
2021/10/02 14:56:30;;;;;;;14.45;7.55;;;;;;;;;;5073291;28;20123;-70
2021/10/02 14:58:58;;;;;;;8.00;6.47;;;;;;;;;;5076672;28;20043;-69
2021/10/02 15:01:24;;;;;;;8.80;6.38;;;;;;;;;;5077090;28;20033;-70
2021/10/02 15:03:50;;;;;;;11.90;6.97;;;;;;;;;;5076689;28;20470;-70
2021/10/02 15:06:16;;;;;;;13.77;6.57;;;;;;;;;;5076580;28;20489;-69
2021/10/02 15:08:42;;;;;;;9.95;7.20;;;;;;;;;;5076401;28;20098;-72
2021/10/02 15:11:08;;;;;;;7.68;6.30;;;;;;;;;;5076764;28;20033;-69
2021/10/02 15:13:34;;;;;;;10.30;6.15;;;;;;;;;;5076951;28;20025;-69
2021/10/02 15:16:01;;;;;;;8.75;6.97;;;;;;;;;;5077070;28;20115;-70
2021/10/02 15:18:28;;;;;;;9.90;7.13;;;;;;;;;;5076551;28;20020;-70
2021/10/02 15:20:56;;;;;;;13.38;7.70;;;;;;;;;;5076225;28;20036;-70
2021/10/02 15:23:25;;;;;;;11.52;6.80;;;;;;;;;;5076383;28;20080;-70